createdAt,value
2018-09-13T10:44:25.893Z,44640.00
2018-09-13T10:46:15.973Z,43200.00
2018-09-13T11:09:46.168Z,10480.00
2018-09-13T11:10:47.796Z,40992.00
2018-09-13T11:11:46.108Z,49664.00
2018-09-13T11:13:47.653Z,49056.00
2018-09-13T11:17:13.934Z,47808.00
2018-09-13T11:20:09.448Z,47264.00
2018-09-13T11:20:42.612Z,47008.00
2018-09-13T11:23:19.053Z,47040.00
2018-09-13T11:24:19.177Z,49664.00
2018-09-13T11:26:17.381Z,10404.00
2018-09-13T11:28:17.483Z,20704.00
2018-09-13T11:29:19.016Z,52064.00
2018-09-13T11:31:20.465Z,50592.00
2018-09-13T11:32:17.532Z,48288.00
2018-09-13T11:33:20.860Z,46656.00
2018-09-13T11:34:17.702Z,46176.00
2018-09-13T11:35:17.480Z,47232.00
2018-09-13T11:36:17.261Z,48000.00
2018-09-13T11:37:17.365Z,48576.00
2018-09-13T11:38:17.480Z,48096.00
2018-09-13T11:39:17.789Z,48160.00
2018-09-13T11:40:18.771Z,48544.00
2018-09-13T11:41:21.973Z,49632.00
2018-09-13T11:42:18.167Z,50272.00
2018-09-13T11:43:20.907Z,51488.00
2018-09-13T11:44:21.883Z,49664.00
2018-09-13T11:45:18.195Z,49152.00
2018-09-13T11:46:18.508Z,26976.00
2018-09-13T11:47:17.628Z,52160.00
2018-09-13T11:48:21.727Z,15836.00
2018-09-13T11:49:18.055Z,24736.00
2018-09-13T11:50:19.533Z,33248.00
2018-09-13T11:51:17.683Z,10264.00
2018-09-13T11:55:20.188Z,53216.00
2018-09-13T11:56:17.673Z,51392.00
2018-09-13T11:57:18.598Z,51072.00
2018-09-13T11:59:17.684Z,45952.00
2018-09-13T12:00:17.755Z,10108.00
2018-09-13T12:02:20.567Z,11544.00
2018-09-13T12:03:17.800Z,46944.00
2018-09-13T12:05:21.283Z,45056.00
2018-09-13T12:06:21.114Z,44128.00
2018-09-13T12:07:19.920Z,43904.00
2018-09-13T12:08:18.236Z,43520.00
2018-09-13T12:09:19.479Z,43328.00
2018-09-13T12:11:20.595Z,42784.00
2018-09-13T12:12:18.247Z,42304.00
2018-09-13T12:13:20.193Z,41728.00
2018-09-13T12:14:17.791Z,41728.00
2018-09-13T12:15:17.867Z,41760.00
2018-09-13T12:16:17.686Z,42240.00
2018-09-13T12:18:20.051Z,42496.00
2018-09-13T12:19:17.873Z,22720.00
2018-09-13T12:21:17.881Z,40704.00
2018-09-13T12:22:17.921Z,40512.00
2018-09-13T12:23:19.590Z,40448.00
2018-09-13T12:24:17.948Z,40544.00
2018-09-13T12:25:17.941Z,40608.00
2018-09-13T12:26:17.896Z,40672.00
2018-09-13T12:27:17.909Z,41088.00
2018-09-13T12:29:17.855Z,41280.00
2018-09-13T12:30:18.454Z,40928.00
2018-09-13T12:31:17.842Z,41056.00
2018-09-13T12:32:19.481Z,40896.00
2018-09-13T12:33:17.872Z,40448.00
2018-09-13T12:34:17.847Z,40448.00
2018-09-13T12:35:18.007Z,40064.00
2018-09-13T12:36:17.927Z,40160.00
2018-09-13T12:37:17.891Z,41184.00
2018-09-13T12:38:17.954Z,41536.00
2018-09-13T12:39:17.963Z,41184.00
2018-09-13T12:40:18.052Z,40512.00
2018-09-13T12:41:19.605Z,40192.00
2018-09-13T12:42:17.957Z,39488.00
2018-09-13T12:43:20.590Z,39488.00
2018-09-13T12:44:18.059Z,39328.00
2018-09-13T12:45:17.997Z,38880.00
2018-09-13T12:46:18.127Z,40416.00
2018-09-13T12:47:20.798Z,8040.00
2018-09-13T12:48:18.132Z,38816.00
2018-09-13T12:49:20.696Z,38464.00
2018-09-13T12:51:21.590Z,37088.00
2018-09-13T12:52:18.275Z,27136.00
2018-09-13T12:53:18.217Z,19712.00
2018-09-13T12:54:18.244Z,9092.00
2018-09-13T12:55:18.253Z,38112.00
2018-09-13T12:56:18.767Z,38016.00
2018-09-13T12:57:18.268Z,37216.00
2018-09-13T12:58:18.272Z,35776.00
2018-09-13T12:59:18.277Z,36640.00
2018-09-13T13:19:24.874Z,32096.00
2018-09-13T13:20:17.301Z,31680.00
2018-09-13T13:24:23.100Z,30592.00
2018-09-13T13:31:23.852Z,28768.00
2018-09-13T13:33:13.029Z,28608.00
2018-09-13T13:35:12.970Z,29280.00
2018-09-13T13:36:14.981Z,29024.00
2018-09-13T13:37:12.003Z,28768.00
2018-09-13T13:38:11.998Z,28832.00
2018-09-13T13:39:12.988Z,27872.00
2018-09-13T13:40:12.013Z,26432.00
2018-09-13T13:41:12.031Z,27168.00
2018-09-13T13:42:12.000Z,27264.00
2018-09-13T13:43:13.998Z,28320.00
2018-09-13T13:46:12.006Z,21984.00
2018-09-13T13:47:12.024Z,27552.00
2018-09-13T13:48:15.055Z,26400.00
2018-09-13T13:50:15.757Z,26656.00
2018-09-13T13:54:12.063Z,25536.00
2018-09-13T13:55:12.074Z,26976.00
2018-09-13T13:57:14.552Z,28032.00
2018-09-13T13:59:12.065Z,27840.00
2018-09-13T14:00:12.064Z,28960.00
2018-09-13T14:01:12.066Z,28480.00
2018-09-13T14:02:12.081Z,27712.00
2018-09-13T14:03:14.903Z,28576.00
2018-09-13T14:04:12.101Z,29056.00
2018-09-13T14:05:12.072Z,30080.00
2018-09-13T14:08:15.478Z,28032.00
2018-09-13T14:09:14.980Z,31776.00
2018-09-13T14:10:12.116Z,32256.00
2018-09-13T14:11:12.101Z,33024.00
2018-09-13T14:12:12.113Z,31680.00
2018-09-13T14:14:12.112Z,30592.00
2018-09-13T14:15:12.143Z,29088.00
2018-09-13T14:16:15.439Z,27872.00
2018-09-13T14:17:12.131Z,30816.00
2018-09-13T14:18:14.041Z,33024.00
2018-09-13T14:20:15.138Z,37568.00
2018-09-13T14:21:12.162Z,37344.00
2018-09-13T14:22:12.153Z,39264.00
2018-09-13T14:23:12.119Z,40544.00
2018-09-13T14:25:13.167Z,39200.00
2018-09-13T14:26:12.156Z,38464.00
2018-09-13T14:27:15.094Z,35392.00
2018-09-13T14:29:12.143Z,34176.00
2018-09-13T14:30:12.166Z,37728.00
2018-09-13T14:31:12.178Z,38368.00
2018-09-13T14:32:12.163Z,37792.00
2018-09-13T14:33:12.993Z,39328.00
2018-09-13T14:35:12.155Z,36800.00
2018-09-13T14:36:12.191Z,42016.00
2018-09-13T14:37:12.188Z,43424.00
2018-09-13T14:38:12.698Z,39808.00
2018-09-13T14:39:16.356Z,37984.00
2018-09-13T14:40:12.265Z,37056.00
2018-09-13T14:41:12.264Z,37248.00
2018-09-13T14:42:12.191Z,35968.00
2018-09-13T14:43:12.673Z,33056.00
2018-09-13T14:44:12.188Z,32480.00
2018-09-13T14:45:14.014Z,33536.00
2018-09-13T14:46:15.489Z,33632.00
2018-09-13T14:48:14.064Z,34080.00
2018-09-13T14:50:15.889Z,23808.00
2018-09-13T14:53:14.045Z,9656.00
2018-09-13T14:55:13.358Z,14840.00
2018-09-13T14:56:14.034Z,12340.00
2018-09-13T14:57:12.166Z,17024.00
2018-09-13T14:58:12.183Z,17952.00
2018-09-13T15:00:13.194Z,16416.00
2018-09-13T15:01:12.183Z,19168.00
2018-09-13T15:02:12.051Z,23264.00
2018-09-13T15:03:15.990Z,34272.00
2018-09-13T15:07:22.151Z,20640.00
2018-09-13T16:18:23.691Z,916.00
2018-09-13T16:22:32.298Z,780.00
2018-09-13T16:23:27.338Z,748.00
2018-09-13T16:24:28.146Z,716.00
2018-09-13T16:25:28.279Z,692.00
2018-09-13T16:26:31.309Z,656.00
2018-09-13T16:27:26.440Z,628.00
2018-09-13T16:28:26.416Z,596.00
2018-09-13T16:29:31.213Z,572.00
2018-09-13T16:30:28.199Z,548.00
2018-09-13T16:32:02.239Z,532.00
2018-09-13T16:32:26.590Z,504.00
2018-09-13T16:33:26.339Z,480.00
2018-09-13T16:34:26.877Z,456.00
2018-09-13T16:35:47.838Z,440.00
2018-09-13T16:37:26.401Z,392.00
2018-09-13T16:38:26.325Z,372.00
2018-09-13T16:39:48.239Z,348.00
2018-09-13T16:40:26.403Z,332.00
2018-09-13T16:41:27.883Z,312.00
2018-09-13T16:42:26.287Z,296.00
2018-09-13T16:43:26.309Z,276.00
2018-09-13T16:44:26.088Z,260.00
2018-09-13T16:45:28.804Z,240.00
2018-09-13T16:46:26.240Z,228.00
2018-09-13T16:47:28.314Z,212.00
2018-09-13T16:48:26.216Z,200.00
2018-09-13T16:50:28.820Z,176.00
2018-09-13T16:51:26.053Z,160.00
2018-09-13T16:52:26.910Z,148.00
2018-09-13T16:53:26.162Z,140.00
2018-09-13T16:54:27.566Z,128.00
2018-09-13T16:55:26.678Z,116.00
2018-09-13T16:57:25.998Z,100.00
2018-09-13T16:58:26.693Z,92.00
2018-09-13T17:00:36.739Z,76.00
2018-09-13T17:01:26.741Z,68.00
2018-09-13T17:02:25.976Z,64.00
2018-09-13T17:03:25.919Z,56.00
2018-09-13T17:04:26.838Z,52.00
2018-09-13T17:05:26.121Z,48.00
2018-09-13T17:06:27.754Z,40.00
2018-09-13T17:07:25.989Z,36.00
2018-09-13T17:08:28.663Z,32.00
2018-09-13T17:09:25.975Z,28.00
2018-09-13T17:10:26.166Z,24.00
2018-09-13T17:11:27.005Z,24.00
2018-09-13T17:12:25.972Z,20.00
2018-09-13T17:13:25.847Z,20.00
2018-09-13T17:14:26.784Z,16.00
2018-09-13T17:15:26.805Z,16.00
2018-09-13T17:16:27.789Z,12.00
2018-09-13T17:17:25.891Z,8.00
2018-09-13T17:18:25.851Z,8.00
2018-09-13T17:19:25.778Z,8.00
2018-09-13T17:20:32.630Z,4.00
2018-09-13T17:21:30.671Z,8.00
2018-09-13T17:22:47.727Z,4.00
2018-09-13T17:23:25.872Z,4.00
2018-09-13T17:24:26.822Z,4.00
2018-09-13T17:25:25.800Z,4.00
2018-09-13T17:26:25.750Z,0.00
2018-09-13T17:29:35.773Z,4.00
2018-09-13T17:30:32.259Z,4.00
2018-09-13T17:32:52.956Z,0.00
2018-09-13T17:33:52.571Z,0.00
2018-09-13T17:36:00.240Z,0.00
2018-09-13T17:40:48.578Z,0.00
2018-09-13T17:43:00.833Z,0.00
2018-09-13T17:47:37.754Z,0.00
2018-09-13T17:48:55.721Z,0.00
2018-09-13T17:49:34.664Z,0.00
2018-09-13T17:50:37.256Z,0.00
2018-09-13T17:51:34.742Z,0.00
2018-09-13T17:52:34.660Z,0.00
2018-09-13T17:53:35.328Z,0.00
2018-09-13T17:54:34.747Z,0.00
2018-09-13T17:55:35.324Z,0.00
2018-09-13T17:56:34.664Z,0.00
2018-09-13T17:57:45.272Z,0.00
2018-09-13T17:58:35.383Z,0.00
2018-09-13T18:01:24.961Z,0.00
2018-09-13T18:02:15.276Z,0.00
2018-09-13T18:04:27.036Z,0.00
2018-09-13T18:05:20.651Z,0.00
2018-09-13T18:07:17.608Z,0.00
2018-09-13T18:08:16.295Z,0.00
2018-09-13T18:09:34.994Z,0.00
2018-09-13T18:10:14.529Z,0.00
2018-09-13T18:11:16.442Z,0.00
2018-09-13T18:12:24.550Z,0.00
2018-09-13T18:13:15.582Z,0.00
2018-09-13T18:14:13.899Z,0.00
2018-09-13T18:15:14.548Z,0.00
2018-09-13T18:16:14.944Z,0.00
2018-09-13T18:17:13.915Z,0.00
2018-09-13T18:18:14.037Z,0.00
2018-09-13T18:19:13.837Z,0.00
2018-09-13T18:20:16.362Z,0.00
2018-09-13T18:21:20.482Z,0.00
2018-09-13T18:22:13.838Z,0.00
2018-09-13T18:23:13.901Z,0.00
2018-09-13T18:24:15.530Z,0.00
2018-09-13T18:25:13.833Z,0.00
2018-09-13T18:28:20.428Z,0.00
2018-09-13T18:29:18.510Z,0.00
2018-09-13T18:30:13.815Z,0.00
2018-09-13T18:31:13.778Z,0.00
2018-09-13T18:32:14.576Z,0.00
2018-09-13T18:33:14.327Z,0.00
2018-09-13T18:34:13.663Z,0.00
2018-09-13T18:35:13.799Z,0.00
2018-09-13T18:36:13.843Z,0.00
2018-09-13T18:37:16.560Z,0.00
2018-09-13T18:38:15.442Z,0.00
2018-09-13T18:39:13.721Z,0.00
2018-09-13T18:40:13.567Z,0.00
2018-09-13T18:43:14.279Z,0.00
2018-09-13T18:44:13.682Z,0.00
2018-09-13T18:45:14.493Z,0.00
2018-09-13T18:46:14.502Z,0.00
2018-09-13T18:47:15.552Z,0.00
2018-09-13T18:48:15.506Z,0.00
2018-09-13T18:49:21.181Z,0.00
2018-09-13T18:51:16.632Z,0.00
2018-09-13T18:53:24.021Z,0.00
2018-09-13T18:55:56.352Z,0.00
2018-09-13T18:56:48.260Z,0.00
2018-09-13T18:57:46.181Z,0.00
2018-09-13T18:58:49.213Z,0.00
2018-09-13T18:59:48.275Z,0.00
2018-09-13T19:00:48.764Z,0.00
2018-09-13T19:01:49.617Z,0.00
2018-09-13T19:02:51.270Z,0.00
2018-09-13T19:03:46.119Z,0.00
2018-09-13T19:04:46.135Z,0.00
2018-09-13T19:05:46.173Z,0.00
2018-09-13T19:06:46.260Z,0.00
2018-09-13T19:07:46.277Z,0.00
2018-09-13T19:08:46.484Z,0.00
2018-09-13T19:09:46.096Z,0.00
2018-09-13T19:10:46.101Z,0.00
2018-09-13T19:11:46.813Z,0.00
2018-09-13T19:12:56.532Z,0.00
2018-09-13T19:13:46.202Z,0.00
2018-09-13T19:14:47.183Z,0.00
2018-09-13T19:15:50.756Z,0.00
2018-09-13T19:16:45.969Z,0.00
2018-09-13T19:17:46.068Z,0.00
2018-09-13T19:18:46.788Z,0.00
2018-09-13T19:19:50.704Z,0.00
2018-09-13T19:21:46.579Z,0.00
2018-09-13T19:22:47.627Z,0.00
2018-09-13T19:23:46.683Z,0.00
2018-09-13T19:24:45.957Z,0.00
2018-09-13T19:26:07.651Z,0.00
2018-09-13T19:27:00.528Z,0.00
2018-09-13T19:28:47.631Z,0.00
2018-09-13T19:29:48.747Z,0.00
2018-09-13T19:31:46.423Z,0.00
2018-09-13T19:32:45.889Z,0.00
2018-09-13T19:33:46.560Z,0.00
2018-09-13T19:34:47.068Z,0.00
2018-09-13T19:35:45.916Z,0.00
2018-09-13T19:36:47.601Z,0.00
2018-09-13T19:37:46.428Z,0.00
2018-09-13T19:38:46.715Z,0.00
2018-09-13T19:39:45.726Z,0.00
2018-09-13T19:40:45.781Z,0.00
2018-09-13T19:42:39.773Z,0.00
2018-09-13T19:43:39.139Z,0.00
2018-09-13T19:45:41.901Z,0.00
2018-09-13T19:46:32.060Z,0.00
2018-09-13T19:47:34.401Z,0.00
2018-09-13T19:48:36.545Z,0.00
2018-09-13T19:49:33.411Z,0.00
2018-09-13T19:50:33.679Z,0.00
2018-09-13T19:51:36.504Z,0.00
2018-09-13T19:52:36.950Z,0.00
2018-09-13T19:53:36.553Z,0.00
2018-09-13T19:54:32.401Z,0.00
2018-09-13T19:56:32.645Z,0.00
2018-09-13T19:57:32.594Z,0.00
2018-09-13T19:58:31.870Z,0.00
2018-09-13T19:59:34.536Z,0.00
2018-09-13T20:00:31.786Z,0.00
2018-09-13T20:01:31.659Z,0.00
2018-09-13T20:02:32.501Z,0.00
2018-09-13T20:03:31.817Z,0.00
2018-09-13T20:04:36.630Z,0.00
2018-09-13T20:05:31.840Z,0.00
2018-09-13T20:06:31.652Z,0.00
2018-09-13T20:07:32.563Z,0.00
2018-09-13T20:08:33.605Z,0.00
2018-09-13T20:09:31.670Z,0.00
2018-09-13T20:10:42.423Z,0.00
2018-09-13T20:11:33.444Z,0.00
2018-09-13T20:12:32.504Z,0.00
2018-09-13T20:13:32.548Z,0.00
2018-09-13T20:15:32.455Z,0.00
2018-09-13T20:16:31.524Z,0.00
2018-09-13T20:17:31.499Z,0.00
2018-09-13T20:18:34.635Z,0.00
2018-09-13T20:19:33.666Z,0.00
2018-09-13T20:20:31.523Z,0.00
2018-09-13T20:21:32.035Z,0.00
2018-09-13T20:22:31.386Z,0.00
2018-09-13T20:23:31.383Z,0.00
2018-09-13T20:24:33.129Z,0.00
2018-09-13T20:25:33.024Z,0.00
2018-09-13T20:26:31.287Z,0.00
2018-09-13T20:27:33.025Z,0.00
2018-09-13T20:28:34.126Z,0.00
2018-09-13T20:29:32.989Z,0.00
2018-09-13T20:30:31.510Z,0.00
2018-09-13T20:31:32.933Z,0.00
2018-09-13T20:32:41.912Z,0.00
2018-09-13T20:33:33.101Z,0.00
2018-09-13T20:34:31.247Z,0.00
2018-09-13T20:35:32.570Z,0.00
2018-09-13T20:36:31.320Z,0.00
2018-09-13T20:37:31.224Z,0.00
2018-09-13T20:38:32.993Z,0.00
2018-09-13T20:39:31.248Z,0.00
2018-09-13T20:40:31.350Z,0.00
2018-09-13T20:41:41.998Z,0.00
2018-09-13T20:42:31.262Z,0.00
2018-09-13T20:43:31.267Z,0.00
2018-09-13T20:44:52.313Z,0.00
2018-09-13T20:45:32.175Z,0.00
2018-09-13T20:46:32.067Z,0.00
2018-09-13T20:47:31.125Z,0.00
2018-09-13T20:48:31.185Z,0.00
2018-09-13T20:49:31.285Z,0.00
2018-09-13T20:50:57.510Z,0.00
2018-09-13T20:51:34.502Z,0.00
2018-09-13T20:52:31.493Z,0.00
2018-09-13T20:53:31.256Z,0.00
2018-09-13T20:54:34.057Z,0.00
2018-09-13T20:55:33.138Z,0.00
2018-09-13T20:56:31.033Z,0.00
2018-09-13T20:57:31.103Z,0.00
2018-09-13T20:58:31.087Z,0.00
2018-09-13T20:59:32.078Z,0.00
2018-09-13T21:00:30.974Z,0.00
2018-09-13T21:01:31.517Z,0.00
2018-09-13T21:02:31.548Z,0.00
2018-09-13T21:03:41.550Z,0.00
2018-09-13T21:04:33.612Z,0.00
2018-09-13T21:05:30.972Z,0.00
2018-09-13T21:06:30.939Z,0.00
2018-09-13T21:07:31.579Z,0.00
2018-09-13T21:09:31.018Z,0.00
2018-09-13T21:10:30.972Z,0.00
2018-09-13T21:11:31.094Z,0.00
2018-09-13T21:12:30.897Z,0.00
2018-09-13T21:14:30.816Z,0.00
2018-09-13T21:15:30.957Z,0.00
2018-09-13T21:16:32.424Z,0.00
2018-09-13T21:17:52.628Z,0.00
2018-09-13T21:18:30.930Z,0.00
2018-09-13T21:19:35.575Z,0.00
2018-09-13T21:20:30.779Z,0.00
2018-09-13T21:21:37.621Z,0.00
2018-09-13T21:22:30.985Z,0.00
2018-09-13T21:23:35.568Z,0.00
2018-09-13T21:24:35.623Z,0.00
2018-09-13T21:25:31.518Z,0.00
2018-09-13T21:26:30.971Z,0.00
2018-09-13T21:27:41.417Z,0.00
2018-09-13T21:28:31.655Z,0.00
2018-09-13T21:29:31.508Z,0.00
2018-09-13T21:32:32.477Z,0.00
2018-09-13T21:33:31.557Z,0.00
2018-09-13T21:35:30.670Z,0.00
2018-09-13T21:36:31.063Z,0.00
2018-09-13T21:37:31.638Z,0.00
2018-09-13T21:39:30.658Z,0.00
2018-09-13T21:40:31.168Z,0.00
2018-09-13T21:41:33.431Z,0.00
2018-09-13T21:42:30.964Z,0.00
2018-09-13T21:43:30.334Z,0.00
2018-09-13T21:44:30.656Z,0.00
2018-09-13T21:45:37.034Z,0.00
2018-09-13T21:46:31.015Z,0.00
2018-09-13T21:47:31.034Z,0.00
2018-09-13T21:48:30.588Z,0.00
2018-09-13T21:49:30.359Z,0.00
2018-09-13T21:50:31.129Z,0.00
2018-09-13T21:51:30.984Z,0.00
2018-09-13T21:52:32.149Z,0.00
2018-09-13T21:53:31.031Z,0.00
2018-09-13T21:54:30.284Z,0.00
2018-09-13T21:55:30.347Z,0.00
2018-09-13T21:56:31.938Z,0.00
2018-09-13T21:58:31.167Z,0.00
2018-09-13T22:01:30.378Z,0.00
2018-09-13T22:02:30.262Z,0.00
2018-09-13T22:03:32.036Z,0.00
2018-09-13T22:04:33.012Z,0.00
2018-09-13T22:05:37.027Z,0.00
2018-09-13T22:06:31.050Z,0.00
2018-09-13T22:07:34.987Z,0.00
2018-09-13T22:08:30.324Z,0.00
2018-09-13T22:09:31.972Z,0.00
2018-09-13T22:10:30.247Z,0.00
2018-09-13T22:11:34.982Z,0.00
2018-09-13T22:12:30.165Z,0.00
2018-09-13T22:13:31.176Z,0.00
2018-09-13T22:14:34.969Z,0.00
2018-09-13T22:15:31.134Z,0.00
2018-09-13T22:16:30.139Z,0.00
2018-09-13T22:17:30.226Z,0.00
2018-09-13T22:18:30.206Z,0.00
2018-09-13T22:19:37.549Z,0.00
2018-09-13T22:21:31.211Z,0.00
2018-09-13T22:22:31.852Z,0.00
2018-09-13T22:23:30.041Z,0.00
2018-09-13T22:24:29.870Z,0.00
2018-09-13T22:25:30.048Z,0.00
2018-09-13T22:26:31.595Z,0.00
2018-09-13T22:27:30.605Z,0.00
2018-09-13T22:28:32.117Z,0.00
2018-09-13T22:29:30.076Z,0.00
2018-09-13T22:30:31.565Z,0.00
2018-09-13T22:31:30.005Z,0.00
2018-09-13T22:32:29.879Z,0.00
2018-09-13T22:33:34.587Z,0.00
2018-09-13T22:34:40.579Z,0.00
2018-09-13T22:35:32.511Z,0.00
2018-09-13T22:36:34.539Z,0.00
2018-09-13T22:37:29.863Z,0.00
2018-09-13T22:39:29.748Z,0.00
2018-09-13T22:40:29.745Z,0.00
2018-09-13T22:41:34.493Z,0.00
2018-09-13T22:42:30.593Z,0.00
2018-09-13T22:43:31.481Z,0.00
2018-09-13T22:44:31.661Z,0.00
2018-09-13T22:45:29.927Z,0.00
2018-09-13T22:46:31.531Z,0.00
2018-09-13T22:47:31.075Z,0.00
2018-09-13T22:48:32.426Z,0.00
2018-09-13T22:49:30.619Z,0.00
2018-09-13T22:50:30.573Z,0.00
2018-09-13T22:51:34.539Z,0.00
2018-09-13T22:52:29.760Z,0.00
2018-09-13T22:54:31.958Z,0.00
2018-09-13T22:55:40.466Z,0.00
2018-09-13T22:56:29.760Z,0.00
2018-09-13T22:57:29.720Z,0.00
2018-09-13T22:58:30.620Z,0.00
2018-09-13T22:59:36.466Z,0.00
2018-09-13T23:00:29.615Z,0.00
2018-09-13T23:01:31.484Z,0.00
2018-09-13T23:02:32.380Z,0.00
2018-09-13T23:03:29.527Z,0.00
2018-09-13T23:04:29.667Z,0.00
2018-09-13T23:05:44.333Z,0.00
2018-09-13T23:06:29.523Z,0.00
2018-09-13T23:07:29.464Z,0.00
2018-09-13T23:08:29.606Z,0.00
2018-09-13T23:09:51.158Z,0.00
2018-09-13T23:10:29.613Z,0.00
2018-09-13T23:11:29.485Z,0.00
2018-09-13T23:12:29.433Z,0.00
2018-09-13T23:13:29.367Z,0.00
2018-09-13T23:14:34.129Z,0.00
2018-09-13T23:15:29.285Z,0.00
2018-09-13T23:16:29.453Z,0.00
2018-09-13T23:17:29.476Z,0.00
2018-09-13T23:18:29.364Z,0.00
2018-09-13T23:19:29.435Z,0.00
2018-09-13T23:20:29.403Z,0.00
2018-09-13T23:21:29.462Z,0.00
2018-09-13T23:22:31.087Z,0.00
2018-09-13T23:23:29.325Z,0.00
2018-09-13T23:24:29.332Z,0.00
2018-09-13T23:25:31.026Z,0.00
2018-09-13T23:26:29.271Z,0.00
2018-09-13T23:27:40.017Z,0.00
2018-09-13T23:28:43.982Z,0.00
2018-09-13T23:29:29.366Z,0.00
2018-09-13T23:30:29.287Z,0.00
2018-09-13T23:31:29.300Z,0.00
2018-09-13T23:32:29.204Z,0.00
2018-09-13T23:36:05.176Z,0.00
2018-09-13T23:36:51.861Z,0.00
2018-09-13T23:37:51.817Z,0.00
2018-09-13T23:38:51.719Z,0.00
2018-09-13T23:39:51.049Z,0.00
2018-09-13T23:41:11.685Z,0.00
2018-09-13T23:41:50.674Z,0.00
2018-09-13T23:42:51.367Z,0.00
2018-09-13T23:43:50.759Z,0.00
2018-09-13T23:44:51.391Z,0.00
2018-09-13T23:45:52.058Z,0.00
2018-09-13T23:46:50.581Z,0.00
2018-09-13T23:47:50.790Z,0.00
2018-09-13T23:48:50.720Z,0.00
2018-09-13T23:49:52.258Z,0.00
2018-09-13T23:50:51.398Z,0.00
2018-09-13T23:52:05.368Z,0.00
2018-09-13T23:52:50.672Z,0.00
2018-09-13T23:55:01.342Z,0.00
2018-09-13T23:55:50.540Z,0.00
2018-09-13T23:56:53.314Z,0.00
2018-09-13T23:57:50.618Z,0.00
2018-09-13T23:58:50.517Z,0.00
